Time;durP1;ratioP1;P1;durP2;ratioP2;P2;SDS_P1;SDS_P2;PMS_P1;PMS_P2;Temp;Humidity;BMP_temperature;BMP_pressure;BME280_temperature;BME280_humidity;BME280_pressure;Samples;Min_cycle;Max_cycle;Signal;HPM_P1;HPM_P2
2021/05/04 00:00:39;;;;;;;5.83;2.73;;;;;;;;;;5051640;28;20486;-69
2021/05/04 00:03:05;;;;;;;1.50;1.40;;;;;;;;;;5013440;28;20455;-69
2021/05/04 00:05:31;;;;;;;7.97;1.30;;;;;;;;;;5013780;28;20419;-68
2021/05/04 00:07:57;;;;;;;3.97;1.73;;;;;;;;;;5032080;28;20420;-70
2021/05/04 00:10:23;;;;;;;3.53;1.37;;;;;;;;;;5033057;28;20408;-70
2021/05/04 00:12:49;;;;;;;4.40;2.07;;;;;;;;;;5033368;28;20415;-70
2021/05/04 00:15:15;;;;;;;2.13;0.80;;;;;;;;;;5033291;28;20396;-71
2021/05/04 00:17:41;;;;;;;2.00;0.90;;;;;;;;;;5017113;28;20392;-70
2021/05/04 00:20:07;;;;;;;3.40;2.77;;;;;;;;;;5013275;28;20440;-68
2021/05/04 00:22:33;;;;;;;1.90;1.40;;;;;;;;;;5013386;28;20544;-69
2021/05/04 00:24:59;;;;;;;2.80;2.07;;;;;;;;;;5018974;28;20499;-70
2021/05/04 00:27:25;;;;;;;1.80;1.27;;;;;;;;;;5032975;28;21008;-70
2021/05/04 00:29:51;;;;;;;2.33;1.77;;;;;;;;;;5031840;28;20786;-70
2021/05/04 00:32:17;;;;;;;4.00;1.63;;;;;;;;;;5032961;28;20417;-70
2021/05/04 00:34:43;;;;;;;2.40;1.20;;;;;;;;;;5032271;28;20465;-69
2021/05/04 00:37:09;;;;;;;1.37;1.27;;;;;;;;;;5033469;28;20728;-69
2021/05/04 00:39:36;;;;;;;1.57;1.47;;;;;;;;;;5032306;28;20815;-70
2021/05/04 00:42:05;;;;;;;3.13;1.30;;;;;;;;;;5032959;28;20825;-70
2021/05/04 00:44:31;;;;;;;1.53;1.30;;;;;;;;;;5032168;28;20447;-70
2021/05/04 00:46:58;;;;;;;3.43;1.80;;;;;;;;;;5013163;28;20457;-71
2021/05/04 00:49:24;;;;;;;1.43;1.13;;;;;;;;;;5012774;28;20412;-70
2021/05/04 00:51:50;;;;;;;0.80;0.70;;;;;;;;;;5031426;28;20420;-70
2021/05/04 00:54:18;;;;;;;3.07;1.73;;;;;;;;;;5016996;28;20796;-69
2021/05/04 00:56:44;;;;;;;4.10;2.20;;;;;;;;;;5031191;28;20432;-70
2021/05/04 00:59:11;;;;;;;4.13;2.27;;;;;;;;;;5047580;28;20455;-69
2021/05/04 01:01:37;;;;;;;2.30;1.23;;;;;;;;;;5019371;28;20974;-70
2021/05/04 01:04:03;;;;;;;0.90;0.80;;;;;;;;;;5012653;28;20417;-69
2021/05/04 01:06:29;;;;;;;4.37;1.20;;;;;;;;;;5028737;28;20491;-70
2021/05/04 01:08:55;;;;;;;2.53;2.30;;;;;;;;;;5032423;28;20472;-70
2021/05/04 01:11:21;;;;;;;2.60;1.57;;;;;;;;;;5017872;28;20426;-70
2021/05/04 01:13:48;;;;;;;2.40;1.27;;;;;;;;;;5014292;28;20442;-70
2021/05/04 01:16:14;;;;;;;3.50;1.90;;;;;;;;;;5017122;28;20504;-70
2021/05/04 01:18:40;;;;;;;2.87;1.63;;;;;;;;;;5012611;28;20449;-69
2021/05/04 01:21:06;;;;;;;1.63;1.53;;;;;;;;;;5023519;28;20408;-69
2021/05/04 01:23:34;;;;;;;1.53;1.40;;;;;;;;;;5031965;28;20466;-69
2021/05/04 01:26:00;;;;;;;1.13;1.03;;;;;;;;;;5020573;28;20897;-69
2021/05/04 01:28:26;;;;;;;4.50;1.70;;;;;;;;;;5014801;28;20455;-69
2021/05/04 01:30:52;;;;;;;2.33;1.33;;;;;;;;;;5026059;28;20470;-69
2021/05/04 01:33:18;;;;;;;1.60;1.50;;;;;;;;;;5032015;28;20444;-69
2021/05/04 01:35:44;;;;;;;5.13;1.53;;;;;;;;;;5022904;28;21043;-70
2021/05/04 01:38:10;;;;;;;1.10;1.00;;;;;;;;;;5011610;28;20455;-70
2021/05/04 01:40:36;;;;;;;2.03;1.83;;;;;;;;;;5018351;28;20467;-69
2021/05/04 01:43:02;;;;;;;1.70;1.53;;;;;;;;;;5030070;28;20438;-70
2021/05/04 01:45:28;;;;;;;2.73;1.23;;;;;;;;;;5024734;28;20421;-70
2021/05/04 01:47:54;;;;;;;4.20;1.20;;;;;;;;;;5013009;28;20453;-70
2021/05/04 01:50:20;;;;;;;4.03;2.13;;;;;;;;;;5031571;28;20457;-70
2021/05/04 01:52:46;;;;;;;3.37;1.60;;;;;;;;;;5031622;28;20910;-70
2021/05/04 01:55:12;;;;;;;2.20;2.00;;;;;;;;;;5027444;28;20489;-69
2021/05/04 01:57:38;;;;;;;1.70;0.77;;;;;;;;;;5017360;28;20436;-70
2021/05/04 02:00:04;;;;;;;2.00;1.57;;;;;;;;;;5013007;28;20415;-71
2021/05/04 02:02:30;;;;;;;2.80;2.07;;;;;;;;;;5011956;28;20908;-70
2021/05/04 02:04:56;;;;;;;1.83;1.50;;;;;;;;;;5013208;28;20425;-71
2021/05/04 02:07:22;;;;;;;8.77;2.53;;;;;;;;;;5031410;28;20504;-69
2021/05/04 02:09:49;;;;;;;0.83;0.70;;;;;;;;;;5030821;28;20463;-70
2021/05/04 02:12:15;;;;;;;1.70;1.13;;;;;;;;;;5031680;28;20829;-70
2021/05/04 02:14:41;;;;;;;4.20;1.77;;;;;;;;;;5031083;28;20429;-69
2021/05/04 02:17:06;;;;;;;2.07;1.07;;;;;;;;;;5011798;28;20483;-70
2021/05/04 02:19:33;;;;;;;2.40;1.30;;;;;;;;;;5016505;28;20538;-70
2021/05/04 02:21:59;;;;;;;2.83;1.90;;;;;;;;;;5030921;28;20400;-70
2021/05/04 02:24:25;;;;;;;2.30;2.10;;;;;;;;;;5031194;28;20478;-70
2021/05/04 02:26:51;;;;;;;2.43;0.90;;;;;;;;;;5028551;28;20440;-69
2021/05/04 02:29:17;;;;;;;1.00;0.83;;;;;;;;;;5044802;22;21694;-74
2021/05/04 02:31:42;;;;;;;2.73;1.10;;;;;;;;;;5029230;28;20428;-73
2021/05/04 02:34:08;;;;;;;2.17;1.10;;;;;;;;;;5029709;28;20463;-73
2021/05/04 02:36:34;;;;;;;1.33;0.80;;;;;;;;;;5011627;28;20400;-73
2021/05/04 02:39:02;;;;;;;1.80;0.97;;;;;;;;;;5028226;28;20873;-73
2021/05/04 02:41:28;;;;;;;3.50;1.00;;;;;;;;;;5011394;28;20428;-72
2021/05/04 02:43:54;;;;;;;1.47;1.03;;;;;;;;;;5019784;28;20395;-74
2021/05/04 02:46:20;;;;;;;1.33;1.23;;;;;;;;;;5031300;28;20382;-73
2021/05/04 02:48:46;;;;;;;2.37;1.27;;;;;;;;;;5013801;28;20422;-73
2021/05/04 02:51:12;;;;;;;0.77;0.53;;;;;;;;;;5011229;28;20416;-74
2021/05/04 02:53:39;;;;;;;1.50;1.27;;;;;;;;;;5010255;28;20467;-74
2021/05/04 02:56:05;;;;;;;1.80;1.33;;;;;;;;;;5011495;28;20869;-72
2021/05/04 02:58:32;;;;;;;1.17;0.80;;;;;;;;;;5035615;28;20443;-73
2021/05/04 03:00:57;;;;;;;1.20;0.80;;;;;;;;;;5032209;28;20429;-72
2021/05/04 03:03:24;;;;;;;2.13;1.37;;;;;;;;;;5029589;28;20834;-73
2021/05/04 03:05:50;;;;;;;1.30;1.03;;;;;;;;;;5015237;28;20417;-73
2021/05/04 03:08:16;;;;;;;0.80;0.60;;;;;;;;;;5027867;28;20397;-73
2021/05/04 03:10:42;;;;;;;1.80;1.67;;;;;;;;;;5030509;28;20518;-73
2021/05/04 03:13:08;;;;;;;1.27;1.17;;;;;;;;;;5031283;28;20435;-73
2021/05/04 03:15:34;;;;;;;1.27;1.13;;;;;;;;;;5031012;28;20410;-73
2021/05/04 03:18:01;;;;;;;3.50;1.23;;;;;;;;;;5030868;28;20551;-73
2021/05/04 03:20:27;;;;;;;22.57;1.83;;;;;;;;;;5030607;28;20432;-75
2021/05/04 03:22:53;;;;;;;1.20;1.10;;;;;;;;;;5030943;28;20791;-77
2021/05/04 03:25:18;;;;;;;0.87;0.70;;;;;;;;;;5031205;28;20402;-73
2021/05/04 03:27:45;;;;;;;1.10;0.70;;;;;;;;;;5030619;28;20515;-73
2021/05/04 03:30:11;;;;;;;1.30;1.10;;;;;;;;;;5030775;28;20441;-73
2021/05/04 03:32:40;;;;;;;2.17;0.97;;;;;;;;;;5030762;28;20405;-73
2021/05/04 03:35:07;;;;;;;1.60;1.50;;;;;;;;;;5031057;28;20487;-73
2021/05/04 03:37:33;;;;;;;2.60;0.90;;;;;;;;;;5030023;28;20981;-73
2021/05/04 03:39:58;;;;;;;0.80;0.60;;;;;;;;;;5017180;28;20683;-72
2021/05/04 03:42:24;;;;;;;0.80;0.60;;;;;;;;;;5025579;28;20403;-73
2021/05/04 03:44:50;;;;;;;1.03;0.93;;;;;;;;;;5033942;28;20488;-72
2021/05/04 03:47:16;;;;;;;2.80;1.03;;;;;;;;;;5034170;28;20823;-73
2021/05/04 03:49:42;;;;;;;2.33;1.53;;;;;;;;;;5032902;28;20476;-73
2021/05/04 03:52:08;;;;;;;3.63;0.90;;;;;;;;;;5034566;28;20933;-74
2021/05/04 03:54:34;;;;;;;0.83;0.63;;;;;;;;;;5034504;28;20420;-73
2021/05/04 03:57:00;;;;;;;1.73;1.10;;;;;;;;;;5033947;28;20475;-73
2021/05/04 03:59:26;;;;;;;2.90;1.33;;;;;;;;;;5051563;28;20496;-73
2021/05/04 04:01:52;;;;;;;1.80;1.70;;;;;;;;;;5053752;28;20486;-74
2021/05/04 04:04:18;;;;;;;1.37;1.27;;;;;;;;;;5043089;28;20459;-73
2021/05/04 04:06:44;;;;;;;0.90;0.63;;;;;;;;;;5024821;28;20408;-73
2021/05/04 04:09:10;;;;;;;0.80;0.80;;;;;;;;;;5024734;28;20866;-72
2021/05/04 04:11:37;;;;;;;1.30;1.20;;;;;;;;;;5022303;28;20750;-74
2021/05/04 04:14:03;;;;;;;1.70;1.50;;;;;;;;;;5026778;28;20417;-73
2021/05/04 04:16:29;;;;;;;2.97;1.40;;;;;;;;;;5034748;28;20495;-73
2021/05/04 04:18:55;;;;;;;1.00;0.70;;;;;;;;;;5018458;28;20471;-77
2021/05/04 04:21:21;;;;;;;1.30;1.20;;;;;;;;;;5030158;28;20391;-73
2021/05/04 04:23:47;;;;;;;0.90;0.70;;;;;;;;;;5020552;28;20420;-75
2021/05/04 04:26:13;;;;;;;1.00;0.70;;;;;;;;;;5032415;28;20432;-71
2021/05/04 04:28:39;;;;;;;0.70;0.50;;;;;;;;;;5022833;28;20490;-75
2021/05/04 04:31:05;;;;;;;2.13;1.93;;;;;;;;;;5022653;28;20445;-73
2021/05/04 04:33:31;;;;;;;2.40;1.37;;;;;;;;;;5024550;28;20914;-73
2021/05/04 04:35:57;;;;;;;1.10;1.00;;;;;;;;;;5026735;28;20488;-75
2021/05/04 04:38:24;;;;;;;3.20;2.60;;;;;;;;;;5030330;28;20443;-73
2021/05/04 04:40:50;;;;;;;2.70;1.03;;;;;;;;;;5033239;28;20428;-72
2021/05/04 04:43:16;;;;;;;1.40;1.17;;;;;;;;;;5015545;28;20467;-73
2021/05/04 04:45:42;;;;;;;0.80;0.60;;;;;;;;;;5013507;28;20479;-73
2021/05/04 04:48:08;;;;;;;1.40;0.70;;;;;;;;;;5024600;28;20803;-73
2021/05/04 04:50:34;;;;;;;2.50;0.83;;;;;;;;;;5031565;28;20499;-74
2021/05/04 04:53:00;;;;;;;1.20;0.70;;;;;;;;;;5032637;28;20484;-72
2021/05/04 04:55:27;;;;;;;2.13;1.20;;;;;;;;;;5032989;28;20925;-74
2021/05/04 04:57:53;;;;;;;1.33;0.90;;;;;;;;;;5034679;28;20396;-73
2021/05/04 05:00:19;;;;;;;1.90;1.10;;;;;;;;;;5032149;28;20481;-72
2021/05/04 05:02:45;;;;;;;2.43;2.13;;;;;;;;;;5031432;28;20413;-73
2021/05/04 05:05:11;;;;;;;2.27;1.77;;;;;;;;;;5032186;28;20407;-73
2021/05/04 05:07:37;;;;;;;0.87;0.67;;;;;;;;;;5032515;28;20394;-74
2021/05/04 05:10:03;;;;;;;1.20;0.80;;;;;;;;;;5031717;28;20488;-74
2021/05/04 05:12:29;;;;;;;1.33;1.17;;;;;;;;;;5019296;28;20811;-74
2021/05/04 05:14:57;;;;;;;1.27;0.80;;;;;;;;;;5028272;28;20437;-74
2021/05/04 05:17:23;;;;;;;2.43;1.80;;;;;;;;;;5027544;28;20510;-72
2021/05/04 05:19:49;;;;;;;1.40;0.97;;;;;;;;;;5019246;28;20438;-76
2021/05/04 05:22:16;;;;;;;1.10;0.80;;;;;;;;;;5027626;28;20453;-73
2021/05/04 05:24:42;;;;;;;1.63;1.13;;;;;;;;;;5024159;28;20415;-74
2021/05/04 05:27:08;;;;;;;1.67;1.10;;;;;;;;;;5029356;28;20873;-75
2021/05/04 05:29:34;;;;;;;3.37;3.13;;;;;;;;;;5023047;28;20939;-73
2021/05/04 05:32:01;;;;;;;1.73;1.63;;;;;;;;;;5023523;28;20498;-72
2021/05/04 05:34:28;;;;;;;1.33;1.10;;;;;;;;;;5027545;28;20443;-73
2021/05/04 05:36:54;;;;;;;4.10;1.20;;;;;;;;;;5030756;28;20492;-74
2021/05/04 05:39:20;;;;;;;1.27;1.17;;;;;;;;;;5026815;28;21148;-75
2021/05/04 05:41:46;;;;;;;1.30;0.97;;;;;;;;;;5026550;28;20419;-74
2021/05/04 05:44:15;;;;;;;1.20;1.10;;;;;;;;;;5029956;28;20503;-74
2021/05/04 05:46:41;;;;;;;1.43;1.33;;;;;;;;;;5031181;28;20410;-73
2021/05/04 05:49:08;;;;;;;1.73;0.80;;;;;;;;;;5029455;28;20421;-74
2021/05/04 05:51:34;;;;;;;1.57;0.73;;;;;;;;;;5031281;28;20501;-72
2021/05/04 05:54:00;;;;;;;0.80;0.60;;;;;;;;;;5029673;28;20503;-73
2021/05/04 05:56:26;;;;;;;1.03;0.93;;;;;;;;;;5029533;28;20409;-73
2021/05/04 05:58:52;;;;;;;1.63;0.70;;;;;;;;;;5034411;28;20513;-73
2021/05/04 06:01:18;;;;;;;1.10;0.90;;;;;;;;;;5029928;28;21627;-74
2021/05/04 06:03:44;;;;;;;0.90;0.60;;;;;;;;;;5026978;28;20419;-74
2021/05/04 06:06:10;;;;;;;3.43;1.07;;;;;;;;;;5031122;28;20409;-72
2021/05/04 06:08:35;;;;;;;1.67;1.40;;;;;;;;;;5030640;28;20894;-72
2021/05/04 06:11:01;;;;;;;0.93;0.80;;;;;;;;;;5028941;28;20433;-76
2021/05/04 06:13:27;;;;;;;1.20;1.10;;;;;;;;;;5027631;28;20428;-73
2021/05/04 06:15:53;;;;;;;0.70;0.53;;;;;;;;;;5030650;28;20415;-73
2021/05/04 06:18:19;;;;;;;2.57;1.57;;;;;;;;;;5024066;28;20507;-74
2021/05/04 06:20:45;;;;;;;2.07;1.17;;;;;;;;;;5028371;28;20479;-74
2021/05/04 06:23:11;;;;;;;1.10;0.77;;;;;;;;;;5031048;28;20436;-72
2021/05/04 06:25:39;;;;;;;1.33;0.83;;;;;;;;;;5025082;28;20395;-73
2021/05/04 06:28:09;;;;;;;0.80;0.60;;;;;;;;;;5021109;28;20514;-72
2021/05/04 06:30:36;;;;;;;1.73;1.10;;;;;;;;;;5020635;28;20441;-74
2021/05/04 06:33:06;;;;;;;1.93;1.13;;;;;;;;;;5010961;28;20435;-75
2021/05/04 06:35:34;;;;;;;3.23;1.43;;;;;;;;;;5013808;28;20417;-76
2021/05/04 06:38:00;;;;;;;1.10;0.90;;;;;;;;;;5020414;28;21078;-75
2021/05/04 06:40:26;;;;;;;2.80;1.33;;;;;;;;;;5017860;28;20407;-74
2021/05/04 06:42:52;;;;;;;1.10;1.00;;;;;;;;;;5021719;28;20780;-72
2021/05/04 06:45:18;;;;;;;3.17;1.30;;;;;;;;;;5018572;28;20491;-72
2021/05/04 06:47:44;;;;;;;1.73;1.33;;;;;;;;;;5016641;28;20465;-74
2021/05/04 06:50:10;;;;;;;3.17;2.37;;;;;;;;;;5023972;28;20799;-72
2021/05/04 06:52:36;;;;;;;1.03;0.83;;;;;;;;;;5031272;28;20411;-72
2021/05/04 06:55:02;;;;;;;0.93;0.80;;;;;;;;;;5029198;28;20406;-73
2021/05/04 06:57:28;;;;;;;1.30;1.20;;;;;;;;;;5021491;28;20924;-72
2021/05/04 06:59:54;;;;;;;1.03;0.70;;;;;;;;;;5049284;28;20492;-74
2021/05/04 07:02:20;;;;;;;1.47;1.37;;;;;;;;;;5049728;28;20898;-73
2021/05/04 07:04:46;;;;;;;0.70;0.50;;;;;;;;;;5023441;28;20416;-73
2021/05/04 07:07:12;;;;;;;1.30;1.20;;;;;;;;;;5021488;28;20411;-73
2021/05/04 07:09:38;;;;;;;1.10;1.00;;;;;;;;;;5024304;28;20789;-73
2021/05/04 07:12:04;;;;;;;1.10;0.90;;;;;;;;;;5017777;28;20951;-72
2021/05/04 07:14:31;;;;;;;2.80;2.03;;;;;;;;;;5022703;28;20385;-73
2021/05/04 07:17:00;;;;;;;6.23;1.50;;;;;;;;;;5031139;28;20423;-73
2021/05/04 07:19:26;;;;;;;1.53;1.27;;;;;;;;;;5028173;28;20830;-72
2021/05/04 07:21:52;;;;;;;1.60;1.50;;;;;;;;;;5027747;28;20378;-73
2021/05/04 07:24:18;;;;;;;1.73;0.70;;;;;;;;;;5021498;28;20960;-73
2021/05/04 07:26:44;;;;;;;1.23;0.73;;;;;;;;;;5024134;28;20778;-74
2021/05/04 07:29:10;;;;;;;2.43;1.43;;;;;;;;;;5023552;28;20688;-71
2021/05/04 07:31:36;;;;;;;0.70;0.57;;;;;;;;;;5027780;28;20489;-73
2021/05/04 07:34:02;;;;;;;1.10;1.00;;;;;;;;;;5008955;28;20489;-73
2021/05/04 07:36:30;;;;;;;1.23;0.90;;;;;;;;;;5023860;28;20422;-73
2021/05/04 07:38:56;;;;;;;1.27;1.00;;;;;;;;;;5022754;28;20447;-73
2021/05/04 07:41:22;;;;;;;0.80;0.70;;;;;;;;;;5025725;28;20772;-74
2021/05/04 07:43:48;;;;;;;7.10;0.73;;;;;;;;;;5023385;28;20378;-72
2021/05/04 07:46:14;;;;;;;0.70;0.50;;;;;;;;;;5022201;28;20394;-71
2021/05/04 07:48:40;;;;;;;0.83;0.83;;;;;;;;;;5021751;28;20780;-75
2021/05/04 07:51:06;;;;;;;0.80;0.70;;;;;;;;;;5023657;28;20461;-73
2021/05/04 07:53:33;;;;;;;0.80;0.63;;;;;;;;;;5023320;28;20371;-75
2021/05/04 07:55:59;;;;;;;0.93;0.80;;;;;;;;;;5025599;28;20853;-73
2021/05/04 07:58:24;;;;;;;1.30;1.13;;;;;;;;;;5028516;28;20426;-74
2021/05/04 08:00:50;;;;;;;1.63;1.07;;;;;;;;;;5023114;28;20767;-75
2021/05/04 08:03:16;;;;;;;0.80;0.50;;;;;;;;;;5024262;28;20374;-75
2021/05/04 08:05:42;;;;;;;0.90;0.80;;;;;;;;;;5022957;28;20400;-75
2021/05/04 08:08:12;;;;;;;1.60;1.50;;;;;;;;;;5026555;28;20403;-75
2021/05/04 08:10:38;;;;;;;2.23;0.77;;;;;;;;;;5019138;28;20441;-75
2021/05/04 08:13:04;;;;;;;4.33;2.10;;;;;;;;;;5016911;28;20415;-72
2021/05/04 08:15:31;;;;;;;1.30;0.70;;;;;;;;;;5013831;28;20397;-74
2021/05/04 08:18:00;;;;;;;0.90;0.70;;;;;;;;;;5013769;28;20816;-72
2021/05/04 08:20:32;;;;;;;0.80;0.67;;;;;;;;;;5011954;28;20468;-74
2021/05/04 08:22:58;;;;;;;0.90;0.60;;;;;;;;;;5014018;28;20422;-73
2021/05/04 08:25:25;;;;;;;0.80;0.63;;;;;;;;;;5011994;28;20400;-74
2021/05/04 08:27:51;;;;;;;0.80;0.57;;;;;;;;;;5014052;28;20747;-75
2021/05/04 08:30:17;;;;;;;0.93;0.70;;;;;;;;;;5031636;22;20537;-74
2021/05/04 08:32:43;;;;;;;0.90;0.60;;;;;;;;;;5025516;28;20935;-74
2021/05/04 08:35:09;;;;;;;1.10;0.87;;;;;;;;;;5031967;28;20473;-73
2021/05/04 08:37:35;;;;;;;0.93;0.70;;;;;;;;;;5031734;28;20924;-73
2021/05/04 08:40:01;;;;;;;1.50;1.40;;;;;;;;;;5025579;28;20465;-74
2021/05/04 08:42:27;;;;;;;1.97;1.17;;;;;;;;;;5027821;28;20403;-74
2021/05/04 08:44:58;;;;;;;0.80;0.60;;;;;;;;;;5003367;28;20502;-75
2021/05/04 08:47:24;;;;;;;0.90;0.73;;;;;;;;;;4997904;28;20592;-74
2021/05/04 08:49:50;;;;;;;0.70;0.60;;;;;;;;;;5007475;28;20497;-73
2021/05/04 08:52:17;;;;;;;0.93;0.60;;;;;;;;;;5021359;28;20383;-74
2021/05/04 08:54:43;;;;;;;0.87;0.63;;;;;;;;;;5010662;28;20391;-74
2021/05/04 08:57:10;;;;;;;0.70;0.50;;;;;;;;;;5011042;28;20540;-74
2021/05/04 08:59:36;;;;;;;0.70;0.57;;;;;;;;;;5010345;28;20551;-74
2021/05/04 09:02:03;;;;;;;0.70;0.50;;;;;;;;;;5005701;28;20514;-74
2021/05/04 09:04:48;;;;;;;1.07;0.70;;;;;;;;;;5000976;28;20483;-73
2021/05/04 09:07:29;;;;;;;0.83;0.70;;;;;;;;;;5001539;28;20417;-74
2021/05/04 09:10:07;;;;;;;0.80;0.60;;;;;;;;;;5002281;28;20781;-73
2021/05/04 09:12:41;;;;;;;0.90;0.60;;;;;;;;;;5002317;28;20413;-75
2021/05/04 09:15:27;;;;;;;1.03;0.93;;;;;;;;;;5004319;28;20769;-73
2021/05/04 09:17:53;;;;;;;1.60;0.73;;;;;;;;;;5003139;28;20422;-74
2021/05/04 09:20:49;;;;;;;0.80;0.50;;;;;;;;;;4999350;28;20384;-74
2021/05/04 09:23:15;;;;;;;2.20;0.70;;;;;;;;;;4995451;28;20773;-73
2021/05/04 09:25:43;;;;;;;0.70;0.50;;;;;;;;;;5006102;28;20405;-74
2021/05/04 09:28:13;;;;;;;1.10;0.80;;;;;;;;;;5009147;28;20444;-75
2021/05/04 09:30:39;;;;;;;4.03;1.10;;;;;;;;;;5007775;28;20433;-74
2021/05/04 09:33:15;;;;;;;0.83;0.60;;;;;;;;;;4998721;28;20912;-73
2021/05/04 09:35:43;;;;;;;1.40;0.60;;;;;;;;;;4999007;28;20431;-72
2021/05/04 09:38:10;;;;;;;0.87;0.60;;;;;;;;;;5004498;28;20453;-73
2021/05/04 09:40:41;;;;;;;0.70;0.50;;;;;;;;;;4999803;28;20405;-74
2021/05/04 09:43:08;;;;;;;1.10;0.87;;;;;;;;;;5009185;28;20399;-75
2021/05/04 09:45:35;;;;;;;2.40;1.63;;;;;;;;;;5009231;28;20562;-73
2021/05/04 09:48:16;;;;;;;0.80;0.60;;;;;;;;;;5009488;28;20520;-73
2021/05/04 09:50:55;;;;;;;0.97;0.57;;;;;;;;;;5008547;28;20423;-75
2021/05/04 09:53:22;;;;;;;1.07;0.63;;;;;;;;;;5010145;28;21032;-74
2021/05/04 09:55:53;;;;;;;0.70;0.50;;;;;;;;;;5010112;28;20967;-74
2021/05/04 09:58:29;;;;;;;3.80;0.67;;;;;;;;;;5016951;28;20458;-74
2021/05/04 10:00:55;;;;;;;1.73;0.60;;;;;;;;;;5012645;28;20404;-74
2021/05/04 10:03:21;;;;;;;0.80;0.70;;;;;;;;;;5003007;28;20407;-73
2021/05/04 10:05:47;;;;;;;0.70;0.40;;;;;;;;;;5000952;28;20793;-74
2021/05/04 10:08:15;;;;;;;0.80;0.50;;;;;;;;;;5002351;28;20476;-75
2021/05/04 10:10:42;;;;;;;0.80;0.60;;;;;;;;;;5004813;28;20429;-73
2021/05/04 10:13:09;;;;;;;1.40;0.70;;;;;;;;;;4996873;28;20409;-75
2021/05/04 10:15:37;;;;;;;0.70;0.50;;;;;;;;;;5006604;28;20431;-74
2021/05/04 10:18:05;;;;;;;1.07;0.70;;;;;;;;;;5005327;28;20418;-76
2021/05/04 10:20:32;;;;;;;0.80;0.80;;;;;;;;;;5007755;28;20432;-76
2021/05/04 10:22:59;;;;;;;0.80;0.60;;;;;;;;;;5006561;28;21001;-76
2021/05/04 10:25:25;;;;;;;0.73;0.60;;;;;;;;;;5002591;28;20513;-74
2021/05/04 10:27:55;;;;;;;0.80;0.50;;;;;;;;;;5006293;28;20427;-73
2021/05/04 10:30:24;;;;;;;0.90;0.60;;;;;;;;;;5000540;28;20443;-74
2021/05/04 10:32:53;;;;;;;0.90;0.60;;;;;;;;;;5003896;28;21108;-74
2021/05/04 10:35:31;;;;;;;1.53;1.43;;;;;;;;;;5001253;28;20483;-75
2021/05/04 10:37:58;;;;;;;0.90;0.60;;;;;;;;;;5000129;28;20414;-72
2021/05/04 10:40:31;;;;;;;0.70;0.40;;;;;;;;;;4997796;28;20401;-73
2021/05/04 10:43:00;;;;;;;1.10;0.80;;;;;;;;;;5009152;28;20397;-74
2021/05/04 10:45:43;;;;;;;0.80;0.53;;;;;;;;;;5008863;28;20394;-73
2021/05/04 10:48:10;;;;;;;1.03;0.60;;;;;;;;;;5001697;28;20448;-75
2021/05/04 10:50:45;;;;;;;1.00;0.60;;;;;;;;;;5008494;28;20437;-74
2021/05/04 10:53:14;;;;;;;0.80;0.60;;;;;;;;;;5005177;28;20394;-75
2021/05/04 10:55:52;;;;;;;1.90;0.90;;;;;;;;;;5008033;28;20505;-74
2021/05/04 10:58:21;;;;;;;3.63;1.23;;;;;;;;;;5006400;28;20454;-74
2021/05/04 11:03:34;;;;;;;0.80;0.70;;;;;;;;;;5009000;28;20423;-73
2021/05/04 11:06:11;;;;;;;0.80;0.57;;;;;;;;;;5007455;28;20391;-73
2021/05/04 11:08:43;;;;;;;1.07;0.73;;;;;;;;;;5002071;28;20418;-73
2021/05/04 11:11:26;;;;;;;1.00;0.67;;;;;;;;;;4995592;28;20776;-74
2021/05/04 11:13:57;;;;;;;0.80;0.60;;;;;;;;;;5008489;28;20383;-73
2021/05/04 11:16:29;;;;;;;0.90;0.73;;;;;;;;;;5008952;28;20428;-74
2021/05/04 11:19:03;;;;;;;0.80;0.50;;;;;;;;;;5008890;28;20443;-75
2021/05/04 11:21:39;;;;;;;0.90;0.70;;;;;;;;;;5007338;28;20419;-73
2021/05/04 11:24:10;;;;;;;0.73;0.60;;;;;;;;;;4996286;28;20387;-71
2021/05/04 11:26:46;;;;;;;0.80;0.60;;;;;;;;;;5008287;28;20829;-71
2021/05/04 11:29:14;;;;;;;0.70;0.60;;;;;;;;;;5001875;28;20504;-72
2021/05/04 11:31:41;;;;;;;1.00;0.80;;;;;;;;;;4996702;28;20407;-70
2021/05/04 11:34:25;;;;;;;0.70;0.50;;;;;;;;;;4999446;28;20397;-72
2021/05/04 11:36:51;;;;;;;0.80;0.60;;;;;;;;;;5000949;28;20442;-73
2021/05/04 11:39:17;;;;;;;0.90;0.70;;;;;;;;;;5009628;28;20430;-70
2021/05/04 11:41:53;;;;;;;0.87;0.70;;;;;;;;;;5009738;28;20391;-71
2021/05/04 11:44:34;;;;;;;3.07;0.87;;;;;;;;;;5007466;28;20485;-71
2021/05/04 11:47:19;;;;;;;0.80;0.60;;;;;;;;;;5001168;28;20429;-71
2021/05/04 11:49:48;;;;;;;1.07;0.80;;;;;;;;;;4997126;28;20416;-71
2021/05/04 11:52:17;;;;;;;0.93;0.67;;;;;;;;;;5008198;28;20391;-72
2021/05/04 11:54:47;;;;;;;2.13;2.03;;;;;;;;;;5006807;28;20415;-71
2021/05/04 11:57:13;;;;;;;2.83;0.90;;;;;;;;;;5008866;28;20855;-71
2021/05/04 11:59:40;;;;;;;1.10;0.90;;;;;;;;;;5009171;28;20456;-76
2021/05/04 12:02:06;;;;;;;2.03;1.83;;;;;;;;;;5021971;28;20395;-75
2021/05/04 12:04:51;;;;;;;0.80;0.60;;;;;;;;;;5028684;28;20462;-76
2021/05/04 12:07:36;;;;;;;1.40;0.90;;;;;;;;;;5021078;28;20399;-72
2021/05/04 12:10:03;;;;;;;0.70;0.60;;;;;;;;;;5017685;28;20423;-71
2021/05/04 12:12:43;;;;;;;0.70;0.53;;;;;;;;;;5009660;28;20417;-72
2021/05/04 12:15:10;;;;;;;1.00;0.70;;;;;;;;;;5011438;28;20768;-73
2021/05/04 12:17:36;;;;;;;1.93;0.83;;;;;;;;;;5008555;28;20433;-72
2021/05/04 12:20:08;;;;;;;1.00;0.90;;;;;;;;;;5017841;28;20439;-73
2021/05/04 12:22:47;;;;;;;1.77;0.80;;;;;;;;;;5016933;28;20408;-73
2021/05/04 12:25:21;;;;;;;1.97;0.63;;;;;;;;;;5003678;28;20387;-74
2021/05/04 12:27:47;;;;;;;0.80;0.70;;;;;;;;;;5014938;28;20790;-73
2021/05/04 12:30:15;;;;;;;1.20;1.03;;;;;;;;;;5016779;28;20443;-74
2021/05/04 12:32:41;;;;;;;1.10;1.00;;;;;;;;;;5010559;28;20406;-73
2021/05/04 12:35:20;;;;;;;0.80;0.50;;;;;;;;;;4997768;28;20392;-72
2021/05/04 12:37:48;;;;;;;1.17;0.83;;;;;;;;;;4999414;28;20399;-74
2021/05/04 12:40:15;;;;;;;5.97;1.90;;;;;;;;;;5015586;28;20430;-73
2021/05/04 12:42:41;;;;;;;1.10;0.80;;;;;;;;;;5020828;28;20436;-72
2021/05/04 12:45:09;;;;;;;1.47;1.17;;;;;;;;;;5015873;28;20404;-73
2021/05/04 12:47:35;;;;;;;1.00;0.70;;;;;;;;;;5000756;28;20431;-72
2021/05/04 12:50:01;;;;;;;1.00;0.90;;;;;;;;;;5000559;28;20388;-72
2021/05/04 12:52:38;;;;;;;1.83;1.20;;;;;;;;;;5004356;28;20785;-75
2021/05/04 12:55:07;;;;;;;3.33;0.93;;;;;;;;;;5002562;28;20381;-74
2021/05/04 12:57:33;;;;;;;1.30;1.20;;;;;;;;;;5003794;28;20418;-75
2021/05/04 13:00:11;;;;;;;0.80;0.77;;;;;;;;;;5003943;28;20490;-73
2021/05/04 13:02:37;;;;;;;1.10;0.80;;;;;;;;;;5001328;28;20384;-73
2021/05/04 13:05:07;;;;;;;1.77;1.57;;;;;;;;;;5004449;28;20389;-73
2021/05/04 13:07:39;;;;;;;0.80;0.80;;;;;;;;;;5010128;28;20523;-73
2021/05/04 13:19:49;;;;;;;0.90;0.80;;;;;;;;;;5010650;28;20558;-75
2021/05/04 13:30:21;;;;;;;0.70;0.50;;;;;;;;;;5012187;28;20413;-73
2021/05/04 13:32:53;;;;;;;0.80;0.73;;;;;;;;;;5012446;28;20506;-73
2021/05/04 13:35:27;;;;;;;1.13;0.50;;;;;;;;;;5011214;28;20896;-74
2021/05/04 13:48:47;;;;;;;1.27;0.57;;;;;;;;;;4996073;28;20443;-73
2021/05/04 13:51:13;;;;;;;0.77;0.50;;;;;;;;;;5012289;28;20871;-74
2021/05/04 13:53:39;;;;;;;0.80;0.60;;;;;;;;;;5012292;28;20393;-74
2021/05/04 13:56:05;;;;;;;0.80;0.60;;;;;;;;;;5011709;28;20394;-73
2021/05/04 13:58:34;;;;;;;0.70;0.50;;;;;;;;;;5021894;28;20434;-74
2021/05/04 14:01:14;;;;;;;0.80;0.60;;;;;;;;;;5010762;28;20387;-74
2021/05/04 14:28:01;;;;;;;2.40;1.20;;;;;;;;;;5011679;28;20987;-75
2021/05/04 14:30:27;;;;;;;0.90;0.70;;;;;;;;;;5011212;28;20434;-73
2021/05/04 14:32:52;;;;;;;2.20;1.00;;;;;;;;;;5007712;28;20392;-73
2021/05/04 14:35:30;;;;;;;0.70;0.50;;;;;;;;;;5008819;28;20567;-73
2021/05/04 14:38:05;;;;;;;0.97;0.87;;;;;;;;;;5005287;28;20417;-73
2021/05/04 14:44:02;;;;;;;0.70;0.60;;;;;;;;;;4994672;28;21082;-72
2021/05/04 14:46:59;;;;;;;0.70;0.50;;;;;;;;;;4980377;28;20837;-72
2021/05/04 14:59:57;;;;;;;0.80;0.50;;;;;;;;;;5000038;28;20524;-72
2021/05/04 15:02:26;;;;;;;1.03;0.80;;;;;;;;;;5003168;28;20405;-73
2021/05/04 15:05:00;;;;;;;0.70;0.40;;;;;;;;;;4992941;28;20398;-71
2021/05/04 15:07:26;;;;;;;0.70;0.40;;;;;;;;;;5006593;28;20435;-72
2021/05/04 15:09:52;;;;;;;0.70;0.40;;;;;;;;;;5003987;28;20471;-72
2021/05/04 15:12:21;;;;;;;0.70;0.40;;;;;;;;;;5003957;28;20437;-71
2021/05/04 15:14:53;;;;;;;0.70;0.50;;;;;;;;;;5002241;28;20413;-72
2021/05/04 15:17:23;;;;;;;0.90;0.60;;;;;;;;;;5001061;28;20777;-72
2021/05/04 15:22:34;;;;;;;0.70;0.50;;;;;;;;;;5002845;28;20452;-71
2021/05/04 15:25:00;;;;;;;0.70;0.40;;;;;;;;;;5000537;28;20406;-71
2021/05/04 15:27:29;;;;;;;0.70;0.50;;;;;;;;;;5004548;28;21995;-71
2021/05/04 15:29:55;;;;;;;0.70;0.50;;;;;;;;;;5009253;28;20453;-72
2021/05/04 15:32:36;;;;;;;4.63;1.17;;;;;;;;;;5007910;28;20888;-72
2021/05/04 15:35:03;;;;;;;2.00;0.90;;;;;;;;;;5006403;28;20474;-72
2021/05/04 15:37:29;;;;;;;0.70;0.40;;;;;;;;;;5007102;28;20519;-72
2021/05/04 15:39:59;;;;;;;0.70;0.40;;;;;;;;;;5014400;28;20481;-76
2021/05/04 15:42:29;;;;;;;0.70;0.50;;;;;;;;;;5004200;28;20412;-71
2021/05/04 15:44:59;;;;;;;0.70;0.50;;;;;;;;;;5004238;28;20474;-70
2021/05/04 16:03:44;;;;;;;0.97;0.87;;;;;;;;;;5005335;28;20382;-72
2021/05/04 16:08:47;;;;;;;0.90;0.67;;;;;;;;;;5013653;28;20491;-73
2021/05/04 16:11:13;;;;;;;0.80;0.60;;;;;;;;;;5013662;28;20466;-72
2021/05/04 16:13:39;;;;;;;1.00;0.53;;;;;;;;;;5005126;28;20987;-74
2021/05/04 16:16:05;;;;;;;0.80;0.60;;;;;;;;;;5004319;28;20881;-74
2021/05/04 16:18:31;;;;;;;1.00;0.90;;;;;;;;;;5007970;28;20474;-73